createdAt,value
2018-06-02T00:00:02.685Z,21.60
2018-06-02T00:02:32.241Z,21.60
2018-06-02T00:05:01.017Z,21.60
2018-06-02T00:07:30.385Z,21.60
2018-06-02T00:09:58.870Z,21.50
2018-06-02T00:12:28.150Z,21.50
2018-06-02T00:14:57.390Z,21.50
2018-06-02T00:17:26.667Z,21.50
2018-06-02T00:19:54.864Z,21.50
2018-06-02T00:22:24.641Z,21.50
2018-06-02T00:24:53.729Z,21.50
2018-06-02T00:27:22.788Z,21.40
2018-06-02T00:29:51.550Z,21.50
2018-06-02T00:32:20.927Z,21.40
2018-06-02T00:34:49.353Z,21.40
2018-06-02T00:37:16.989Z,21.40
2018-06-02T00:39:46.861Z,21.40
2018-06-02T00:42:17.288Z,21.40
2018-06-02T00:44:46.022Z,21.40
2018-06-02T00:47:14.874Z,21.40
2018-06-02T00:49:42.503Z,21.40
2018-06-02T00:52:10.100Z,21.40
2018-06-02T00:54:49.531Z,21.40
2018-06-02T00:57:17.204Z,21.40
2018-06-02T00:59:44.801Z,21.40
2018-06-02T01:02:12.478Z,21.40
2018-06-02T01:04:40.090Z,21.40
2018-06-02T01:07:08.915Z,21.40
2018-06-02T01:09:36.602Z,21.40
2018-06-02T01:12:09.755Z,21.30
2018-06-02T01:14:37.433Z,21.40
2018-06-02T01:17:05.045Z,21.30
2018-06-02T01:19:32.640Z,21.30
2018-06-02T01:22:00.329Z,21.40
2018-06-02T01:24:27.904Z,21.30
2018-06-02T01:26:55.640Z,21.30
2018-06-02T01:29:23.988Z,21.30
2018-06-02T01:31:51.593Z,21.30
2018-06-02T01:34:19.165Z,21.30
2018-06-02T01:36:46.757Z,21.30
2018-06-02T01:39:14.313Z,21.30
2018-06-02T01:41:41.913Z,21.30
2018-06-02T01:44:09.493Z,21.30
2018-06-02T01:46:37.092Z,21.30
2018-06-02T01:49:04.662Z,21.30
2018-06-02T01:51:32.249Z,21.30
2018-06-02T01:53:59.845Z,21.30
2018-06-02T01:56:27.524Z,21.30
2018-06-02T01:58:55.205Z,21.30
2018-06-02T02:01:22.792Z,21.30
2018-06-02T02:03:50.363Z,21.30
2018-06-02T02:06:17.929Z,21.30
2018-06-02T02:08:46.278Z,21.30
2018-06-02T02:11:13.837Z,21.20
2018-06-02T02:13:41.452Z,21.30
2018-06-02T02:16:09.027Z,21.30
2018-06-02T02:18:37.860Z,21.20
2018-06-02T02:21:05.427Z,21.30
2018-06-02T02:23:33.008Z,21.30
2018-06-02T02:26:00.589Z,21.20
2018-06-02T02:28:28.163Z,21.30
2018-06-02T02:30:55.742Z,21.30
2018-06-02T02:33:23.327Z,21.30
2018-06-02T02:35:50.920Z,21.30
2018-06-02T02:38:18.490Z,21.20
2018-06-02T02:40:46.048Z,21.20
2018-06-02T02:43:13.615Z,21.20
2018-06-02T02:45:41.256Z,21.20
2018-06-02T02:48:08.833Z,21.20
2018-06-02T02:50:36.393Z,21.20
2018-06-02T02:53:04.762Z,21.20
2018-06-02T02:55:32.434Z,21.20
2018-06-02T02:58:00.022Z,21.20
2018-06-02T03:00:27.638Z,21.20
2018-06-02T03:02:55.242Z,21.20
2018-06-02T03:05:23.581Z,21.20
2018-06-02T03:07:51.164Z,21.20
2018-06-02T03:10:18.751Z,21.20
2018-06-02T03:12:46.337Z,21.20
2018-06-02T03:15:13.930Z,21.20
2018-06-02T03:17:41.511Z,21.20
2018-06-02T03:20:09.077Z,21.20
2018-06-02T03:22:36.698Z,21.20
2018-06-02T03:25:04.257Z,21.20
2018-06-02T03:27:31.844Z,21.20
2018-06-02T03:29:59.512Z,21.20
2018-06-02T03:32:27.101Z,21.20
2018-06-02T03:34:54.663Z,21.20
2018-06-02T03:37:23.110Z,21.20
2018-06-02T03:39:50.674Z,21.10
2018-06-02T03:42:18.263Z,21.20
2018-06-02T03:44:45.850Z,21.20
2018-06-02T03:47:13.483Z,21.20
2018-06-02T03:49:41.134Z,21.20
2018-06-02T03:52:08.709Z,21.20
2018-06-02T03:54:36.348Z,21.20
2018-06-02T03:57:03.933Z,21.20
2018-06-02T03:59:32.273Z,21.20
2018-06-02T04:01:59.860Z,21.20
2018-06-02T04:04:27.422Z,21.20
2018-06-02T04:06:55.864Z,21.20
2018-06-02T04:09:23.423Z,21.20
2018-06-02T04:11:51.752Z,21.20
2018-06-02T04:14:19.324Z,21.20
2018-06-02T04:16:46.932Z,21.20
2018-06-02T04:19:15.253Z,21.20
2018-06-02T04:21:42.866Z,21.10
2018-06-02T04:24:12.025Z,21.10
2018-06-02T04:26:39.596Z,21.10
2018-06-02T04:29:07.763Z,21.20
2018-06-02T04:31:35.336Z,21.20
2018-06-02T04:34:02.924Z,21.20
2018-06-02T04:36:30.495Z,21.10
2018-06-02T04:38:58.143Z,21.20
2018-06-02T04:41:25.825Z,21.10
2018-06-02T04:43:53.381Z,21.10
2018-06-02T04:46:21.715Z,21.10
2018-06-02T04:48:49.276Z,21.10
2018-06-02T04:51:16.834Z,21.10
2018-06-02T04:53:44.406Z,21.10
2018-06-02T04:56:12.016Z,21.10
2018-06-02T04:58:39.573Z,21.10
2018-06-02T05:01:07.232Z,21.10
2018-06-02T05:03:34.816Z,21.10
2018-06-02T05:06:02.502Z,21.10
2018-06-02T05:08:30.095Z,21.10
2018-06-02T05:10:57.673Z,21.20
2018-06-02T05:13:25.230Z,21.10
2018-06-02T05:15:53.676Z,21.10
2018-06-02T05:18:21.352Z,21.10
2018-06-02T05:20:48.956Z,21.10
2018-06-02T05:23:16.635Z,21.10
2018-06-02T05:25:44.303Z,21.10
2018-06-02T05:28:11.900Z,21.10
2018-06-02T05:30:39.586Z,21.10
2018-06-02T05:33:07.208Z,21.10
2018-06-02T05:35:34.769Z,21.10
2018-06-02T05:38:02.393Z,21.10
2018-06-02T05:40:30.049Z,21.10
2018-06-02T05:42:58.439Z,21.10
2018-06-02T05:45:26.125Z,21.10
2018-06-02T05:47:53.725Z,21.10
2018-06-02T05:50:21.289Z,21.10
2018-06-02T05:52:48.996Z,21.10
2018-06-02T05:55:16.560Z,21.10
2018-06-02T05:57:44.278Z,21.10
2018-06-02T06:00:11.864Z,21.10
2018-06-02T06:02:39.804Z,21.10
2018-06-02T06:05:07.538Z,21.10
2018-06-02T06:07:35.116Z,21.10
2018-06-02T06:10:02.789Z,21.10
2018-06-02T06:12:30.366Z,21.10
2018-06-02T06:14:57.929Z,21.10
2018-06-02T06:17:25.506Z,21.10
2018-06-02T06:19:53.834Z,21.10
2018-06-02T06:22:21.409Z,21.10
2018-06-02T06:24:48.976Z,21.10
2018-06-02T06:27:17.318Z,21.10
2018-06-02T06:29:44.904Z,21.10
2018-06-02T06:32:12.497Z,21.10
2018-06-02T06:34:40.065Z,21.10
2018-06-02T06:37:07.655Z,21.10
2018-06-02T06:39:35.337Z,21.10
2018-06-02T06:42:02.901Z,21.10
2018-06-02T06:44:30.487Z,21.10
2018-06-02T06:46:58.811Z,21.10
2018-06-02T06:49:26.404Z,21.00
2018-06-02T06:51:53.965Z,21.10
2018-06-02T06:54:21.585Z,21.10
2018-06-02T06:56:49.243Z,21.10
2018-06-02T06:59:16.809Z,21.10
2018-06-02T07:01:45.161Z,21.10
2018-06-02T07:04:12.731Z,21.00
2018-06-02T07:06:40.304Z,21.10
2018-06-02T07:09:07.896Z,21.10
2018-06-02T07:11:35.572Z,21.10
2018-06-02T07:14:03.140Z,21.10
2018-06-02T07:16:30.706Z,21.10
2018-06-02T07:18:59.065Z,21.10
2018-06-02T07:21:26.638Z,21.00
2018-06-02T07:23:54.225Z,21.10
2018-06-02T07:26:21.907Z,21.10
2018-06-02T07:28:49.576Z,21.10
2018-06-02T07:31:17.177Z,21.10
2018-06-02T07:33:44.757Z,21.10
2018-06-02T07:36:12.322Z,21.10
2018-06-02T07:38:39.906Z,21.10
2018-06-02T07:41:07.511Z,21.10
2018-06-02T07:43:35.114Z,21.10
2018-06-02T07:46:02.793Z,21.10
2018-06-02T07:48:30.379Z,21.10
2018-06-02T07:50:57.954Z,21.10
2018-06-02T07:53:25.529Z,21.10
2018-06-02T07:55:53.093Z,21.10
2018-06-02T07:58:21.506Z,21.10
2018-06-02T08:00:49.121Z,21.00
2018-06-02T08:03:16.745Z,21.10
2018-06-02T08:05:44.345Z,21.10
2018-06-02T08:08:11.931Z,21.10
2018-06-02T08:10:40.287Z,21.10
2018-06-02T08:13:07.861Z,21.00
2018-06-02T08:15:35.579Z,21.00
2018-06-02T08:18:03.266Z,21.10
2018-06-02T08:20:30.919Z,21.10
2018-06-02T08:22:58.495Z,21.10
2018-06-02T08:25:26.229Z,21.10
2018-06-02T08:27:53.819Z,21.10
2018-06-02T08:30:21.487Z,21.10
2018-06-02T08:32:49.228Z,21.10
2018-06-02T08:35:18.477Z,21.00
2018-06-02T08:37:46.078Z,21.00
2018-06-02T08:40:13.706Z,21.10
2018-06-02T08:42:42.060Z,21.10
2018-06-02T08:45:09.750Z,21.00
2018-06-02T08:47:39.278Z,21.00
2018-06-02T08:50:06.865Z,21.00
2018-06-02T08:52:34.431Z,21.00
2018-06-02T08:55:02.035Z,21.00
2018-06-02T08:57:29.699Z,21.00
2018-06-02T08:59:57.320Z,21.00
2018-06-02T09:02:25.022Z,21.00
2018-06-02T09:04:53.691Z,21.00
2018-06-02T09:07:21.288Z,21.00
2018-06-02T09:09:49.204Z,21.00
2018-06-02T09:12:17.041Z,21.00
2018-06-02T09:14:44.682Z,21.00
2018-06-02T09:17:12.255Z,21.00
2018-06-02T09:19:39.847Z,21.00
2018-06-02T09:22:07.446Z,21.00
2018-06-02T09:24:35.801Z,21.00
2018-06-02T09:27:03.400Z,21.00
2018-06-02T09:29:31.081Z,21.00
2018-06-02T09:31:58.819Z,21.00
2018-06-02T09:34:27.196Z,21.00
2018-06-02T09:36:54.801Z,21.00
2018-06-02T09:39:22.377Z,21.00
2018-06-02T09:41:49.999Z,21.00
2018-06-02T09:44:18.485Z,21.00
2018-06-02T09:46:46.859Z,21.00
2018-06-02T09:49:14.449Z,21.00
2018-06-02T09:51:42.038Z,21.00
2018-06-02T09:54:10.484Z,21.00
2018-06-02T09:56:38.197Z,21.00
2018-06-02T09:59:05.901Z,21.00
2018-06-02T10:01:33.505Z,21.00
2018-06-02T10:04:01.073Z,21.00
2018-06-02T10:06:29.189Z,21.00
2018-06-02T10:08:57.543Z,21.00
2018-06-02T10:11:25.126Z,21.00
2018-06-02T10:13:52.711Z,21.00
2018-06-02T10:16:20.279Z,21.00
2018-06-02T10:18:49.103Z,21.00
2018-06-02T10:21:17.081Z,21.00
2018-06-02T10:23:45.398Z,21.00
2018-06-02T10:26:13.788Z,21.00
2018-06-02T10:28:42.129Z,21.00
2018-06-02T10:31:09.722Z,21.00
2018-06-02T10:33:37.527Z,21.00
2018-06-02T10:36:05.121Z,21.00
2018-06-02T10:38:32.702Z,21.00
2018-06-02T10:41:00.270Z,21.00
2018-06-02T10:43:27.829Z,21.00
2018-06-02T10:45:55.519Z,21.00
2018-06-02T10:48:23.106Z,21.00
2018-06-02T10:50:50.707Z,21.00
2018-06-02T10:53:18.319Z,21.00
2018-06-02T10:55:45.881Z,21.00
2018-06-02T10:58:13.475Z,21.00
2018-06-02T11:00:41.112Z,21.00
2018-06-02T11:03:08.698Z,21.00
2018-06-02T11:05:36.263Z,21.00
2018-06-02T11:08:04.599Z,21.00
2018-06-02T11:10:32.192Z,21.00
2018-06-02T11:12:59.758Z,21.00
2018-06-02T11:15:27.338Z,21.00
2018-06-02T11:17:54.910Z,21.00
2018-06-02T11:20:23.239Z,21.00
2018-06-02T11:22:50.827Z,21.00
2018-06-02T11:25:18.419Z,21.00
2018-06-02T11:27:45.981Z,21.00
2018-06-02T11:30:13.574Z,21.00
2018-06-02T11:32:41.251Z,21.00
2018-06-02T11:35:08.824Z,21.00
2018-06-02T11:37:37.197Z,21.00
2018-06-02T11:40:04.790Z,21.00
2018-06-02T11:42:32.415Z,21.00
2018-06-02T11:45:00.113Z,21.00
2018-06-02T11:47:27.690Z,21.00
2018-06-02T11:49:56.052Z,21.00
2018-06-02T11:52:24.526Z,21.00
2018-06-02T11:54:52.102Z,21.00
2018-06-02T11:57:19.750Z,21.00
2018-06-02T11:59:47.455Z,21.00
2018-06-02T12:02:15.007Z,21.00
2018-06-02T12:04:42.614Z,21.00
2018-06-02T12:07:11.682Z,21.00
2018-06-02T12:09:39.426Z,21.00
2018-06-02T12:12:07.750Z,21.00
2018-06-02T12:14:36.176Z,21.00
2018-06-02T12:17:03.734Z,21.00
2018-06-02T12:19:31.326Z,21.00
2018-06-02T12:21:58.900Z,21.00
2018-06-02T12:24:27.344Z,21.00
2018-06-02T12:26:55.034Z,21.00
2018-06-02T12:29:22.997Z,21.00
2018-06-02T12:31:50.604Z,21.00
2018-06-02T12:34:18.782Z,21.00
2018-06-02T12:36:46.776Z,21.00
2018-06-02T12:39:14.882Z,21.00
2018-06-02T12:41:42.821Z,21.00
2018-06-02T12:44:10.555Z,21.00
2018-06-02T12:46:39.723Z,21.00
2018-06-02T12:49:07.364Z,21.00
2018-06-02T12:51:36.329Z,21.00
2018-06-02T12:54:05.443Z,21.00
2018-06-02T12:56:33.069Z,21.00
2018-06-02T12:59:01.414Z,21.00
2018-06-02T13:01:29.054Z,21.00
2018-06-02T13:03:58.258Z,21.00
2018-06-02T13:06:25.876Z,20.90
2018-06-02T13:08:54.507Z,21.00
2018-06-02T13:11:23.944Z,21.00
2018-06-02T13:13:53.143Z,21.00
2018-06-02T13:16:21.735Z,20.90
2018-06-02T13:18:49.346Z,21.00
2018-06-02T13:21:17.685Z,21.00
2018-06-02T13:23:45.486Z,21.00
2018-06-02T13:26:14.378Z,21.00
2018-06-02T13:28:43.778Z,21.00
2018-06-02T13:31:11.398Z,21.00
2018-06-02T13:33:39.295Z,21.00
2018-06-02T13:36:06.894Z,21.00
2018-06-02T13:38:35.304Z,21.00
2018-06-02T13:41:02.921Z,21.00
2018-06-02T13:43:31.333Z,21.00
2018-06-02T13:45:59.040Z,21.00
2018-06-02T13:48:29.545Z,21.00
2018-06-02T13:50:57.144Z,21.00
2018-06-02T13:53:24.710Z,21.00
2018-06-02T13:55:53.092Z,21.00
2018-06-02T13:58:20.765Z,21.00
2018-06-02T14:00:48.408Z,21.00
2018-06-02T14:03:16.062Z,21.00
2018-06-02T14:05:44.429Z,21.00
2018-06-02T14:08:12.021Z,21.00
2018-06-02T14:10:39.650Z,21.00
2018-06-02T14:13:07.485Z,21.00
2018-06-02T14:15:35.103Z,21.00
2018-06-02T14:18:02.674Z,21.00
2018-06-02T14:20:30.323Z,21.00
2018-06-02T14:22:58.707Z,21.00
2018-06-02T14:25:26.298Z,20.90
2018-06-02T14:27:54.686Z,21.00
2018-06-02T14:30:22.289Z,20.90
2018-06-02T14:32:50.721Z,21.00
2018-06-02T14:35:18.305Z,20.90
2018-06-02T14:37:45.916Z,21.00
2018-06-02T14:40:13.527Z,21.00
2018-06-02T14:42:41.105Z,21.00
2018-06-02T14:45:08.682Z,21.00
2018-06-02T14:47:36.436Z,20.90
2018-06-02T14:50:04.037Z,21.00
2018-06-02T14:52:31.638Z,21.00
2018-06-02T14:54:59.418Z,21.00
2018-06-02T14:57:28.658Z,21.00
2018-06-02T14:59:56.369Z,21.00
2018-06-02T15:02:23.950Z,21.00
2018-06-02T15:04:51.509Z,21.00
2018-06-02T15:07:19.090Z,21.00
2018-06-02T15:09:46.689Z,21.00
2018-06-02T15:12:14.358Z,21.00
2018-06-02T15:14:42.965Z,21.00
2018-06-02T15:17:10.572Z,21.00
2018-06-02T15:19:38.357Z,21.00
2018-06-02T15:22:05.947Z,21.00
2018-06-02T15:24:33.517Z,21.00
2018-06-02T15:27:01.194Z,21.00
2018-06-02T15:29:28.801Z,21.00
2018-06-02T15:31:56.409Z,21.00
2018-06-02T15:34:24.050Z,21.00
2018-06-02T15:36:51.645Z,21.00
2018-06-02T15:39:19.405Z,21.00
2018-06-02T15:41:47.813Z,21.00
2018-06-02T15:44:15.373Z,20.90
2018-06-02T15:46:43.731Z,21.00
2018-06-02T15:49:11.394Z,20.90
2018-06-02T15:51:39.390Z,21.00
2018-06-02T15:54:07.001Z,20.90
2018-06-02T15:56:34.615Z,21.00
2018-06-02T15:59:02.198Z,20.90
2018-06-02T16:01:29.809Z,20.90
2018-06-02T16:03:57.414Z,20.90
2018-06-02T16:06:24.997Z,21.00
2018-06-02T16:08:52.607Z,21.00
2018-06-02T16:11:20.217Z,21.00
2018-06-02T16:13:47.864Z,20.90
2018-06-02T16:16:15.440Z,21.00
2018-06-02T16:18:43.054Z,20.90
2018-06-02T16:21:10.626Z,21.00
2018-06-02T16:23:38.497Z,21.00
2018-06-02T16:26:06.121Z,21.00
2018-06-02T16:28:33.684Z,21.00
2018-06-02T16:31:01.883Z,20.90
2018-06-02T16:33:29.473Z,21.00
2018-06-02T16:35:57.058Z,21.00
2018-06-02T16:38:24.623Z,21.00
2018-06-02T16:40:52.213Z,20.90
2018-06-02T16:43:19.792Z,20.90
2018-06-02T16:45:47.382Z,20.90
2018-06-02T16:48:15.003Z,21.00
2018-06-02T16:50:42.633Z,20.90
2018-06-02T16:53:10.214Z,21.00
2018-06-02T16:55:38.573Z,21.00
2018-06-02T16:58:06.177Z,20.90
2018-06-02T17:00:34.518Z,20.90
2018-06-02T17:03:02.155Z,20.90
2018-06-02T17:05:29.816Z,21.00
2018-06-02T17:07:57.410Z,21.00
2018-06-02T17:10:25.048Z,21.00
2018-06-02T17:12:52.647Z,20.90
2018-06-02T17:15:20.213Z,20.90
2018-06-02T17:17:48.804Z,21.00
2018-06-02T17:20:16.443Z,20.90
2018-06-02T17:22:44.037Z,20.90
2018-06-02T17:25:11.610Z,20.90
2018-06-02T17:27:39.474Z,20.90
2018-06-02T17:30:07.866Z,20.90
2018-06-02T17:32:35.561Z,20.90
2018-06-02T17:35:03.166Z,21.00
2018-06-02T17:37:30.898Z,20.90
2018-06-02T17:39:58.465Z,20.90
2018-06-02T17:42:26.088Z,20.90
2018-06-02T17:44:54.461Z,20.90
2018-06-02T17:47:22.056Z,20.90
2018-06-02T17:49:49.627Z,20.90
2018-06-02T17:52:17.242Z,20.90
2018-06-02T17:54:44.856Z,20.90
2018-06-02T17:57:12.463Z,20.90
2018-06-02T17:59:40.077Z,20.90
2018-06-02T18:02:07.970Z,20.90
2018-06-02T18:04:35.672Z,20.90
2018-06-02T18:07:03.989Z,20.90
2018-06-02T18:09:33.372Z,20.90
2018-06-02T18:12:01.009Z,20.90
2018-06-02T18:14:29.484Z,20.90
2018-06-02T18:16:57.109Z,20.90
2018-06-02T18:19:25.452Z,20.90
2018-06-02T18:21:53.050Z,20.90
2018-06-02T18:24:20.701Z,20.90
2018-06-02T18:26:48.311Z,20.90
2018-06-02T18:29:15.887Z,20.90
2018-06-02T18:31:43.561Z,20.90
2018-06-02T18:34:11.117Z,20.90
2018-06-02T18:36:38.694Z,20.90
2018-06-02T18:39:07.112Z,20.90
2018-06-02T18:41:34.721Z,20.90
2018-06-02T18:44:02.302Z,20.90
2018-06-02T18:46:29.907Z,20.90
2018-06-02T18:48:57.491Z,20.90
2018-06-02T18:51:25.074Z,20.90
2018-06-02T18:53:52.678Z,20.90
2018-06-02T18:56:20.330Z,20.90
2018-06-02T18:58:47.902Z,20.90
2018-06-02T19:01:16.278Z,20.90
2018-06-02T19:03:44.633Z,20.90
2018-06-02T19:06:12.221Z,20.90
2018-06-02T19:08:39.887Z,20.90
2018-06-02T19:11:07.495Z,20.90
2018-06-02T19:13:35.064Z,20.90
2018-06-02T19:16:03.372Z,20.90
2018-06-02T19:18:30.959Z,20.90
2018-06-02T19:20:58.673Z,20.90
2018-06-02T19:23:26.277Z,20.90
2018-06-02T19:25:54.698Z,20.90
2018-06-02T19:28:23.029Z,20.90
2018-06-02T19:30:50.602Z,20.90
2018-06-02T19:33:18.201Z,20.90
2018-06-02T19:35:45.849Z,20.90
2018-06-02T19:38:13.438Z,20.90
2018-06-02T19:40:41.037Z,20.90
2018-06-02T19:43:09.499Z,20.90
2018-06-02T19:45:37.075Z,20.90
2018-06-02T19:48:04.693Z,20.90
2018-06-02T19:50:32.257Z,20.90
2018-06-02T19:52:59.949Z,20.90
2018-06-02T19:55:28.289Z,20.90
2018-06-02T19:57:56.456Z,20.90
2018-06-02T20:00:25.814Z,20.90
2018-06-02T20:02:55.108Z,20.90
2018-06-02T20:05:22.829Z,20.90
2018-06-02T20:07:51.472Z,20.90
2018-06-02T20:10:20.234Z,20.90
2018-06-02T20:12:49.482Z,20.90
2018-06-02T20:15:18.134Z,20.90
2018-06-02T20:17:46.859Z,20.90
2018-06-02T20:20:16.804Z,20.90
2018-06-02T20:22:45.755Z,20.90
2018-06-02T20:25:13.403Z,20.90
2018-06-02T20:27:41.979Z,20.90
2018-06-02T20:30:10.239Z,20.80
2018-06-02T20:32:39.184Z,20.90
2018-06-02T20:35:08.443Z,20.90
2018-06-02T20:37:38.389Z,20.90
2018-06-02T20:40:06.943Z,20.90
2018-06-02T20:42:36.464Z,20.90
2018-06-02T20:45:04.318Z,20.90
2018-06-02T20:47:32.762Z,20.90
2018-06-02T20:50:00.651Z,20.90
2018-06-02T20:52:30.053Z,20.90
2018-06-02T20:54:57.873Z,20.80
2018-06-02T20:57:27.760Z,20.90
2018-06-02T20:59:55.502Z,20.80
2018-06-02T21:02:23.127Z,20.90
2018-06-02T21:04:51.667Z,20.90
2018-06-02T21:07:20.256Z,20.90
2018-06-02T21:09:48.606Z,20.90
2018-06-02T21:12:16.214Z,20.90
2018-06-02T21:14:44.726Z,20.90
2018-06-02T21:17:13.409Z,20.90
2018-06-02T21:19:41.974Z,20.90
2018-06-02T21:22:10.747Z,20.90
2018-06-02T21:24:40.253Z,20.90
2018-06-02T21:27:08.054Z,20.80
2018-06-02T21:29:35.713Z,20.90
2018-06-02T21:32:04.106Z,20.90
2018-06-02T21:34:33.491Z,20.90
2018-06-02T21:37:02.076Z,20.80
2018-06-02T21:39:30.414Z,20.90
2018-06-02T21:41:58.021Z,20.90
2018-06-02T21:44:26.994Z,20.90
2018-06-02T21:46:55.285Z,20.90
2018-06-02T21:49:24.242Z,20.90
2018-06-02T21:51:52.604Z,20.90
2018-06-02T21:54:20.519Z,20.90
2018-06-02T21:56:48.699Z,20.90
2018-06-02T21:59:17.050Z,20.90
2018-06-02T22:01:45.505Z,20.90
2018-06-02T22:04:15.220Z,20.90
2018-06-02T22:06:43.608Z,20.90
2018-06-02T22:09:11.270Z,20.90
2018-06-02T22:11:39.461Z,20.90
2018-06-02T22:14:08.242Z,20.90
2018-06-02T22:16:36.797Z,20.90
2018-06-02T22:19:06.524Z,20.90
2018-06-02T22:21:34.844Z,20.80
2018-06-02T22:24:03.805Z,20.90
2018-06-02T22:26:31.512Z,20.80
2018-06-02T22:29:00.695Z,20.90
2018-06-02T22:31:29.425Z,20.90
2018-06-02T22:33:57.830Z,20.90
2018-06-02T22:36:26.090Z,20.90
2018-06-02T22:38:54.535Z,20.90
2018-06-02T22:41:22.155Z,20.90
2018-06-02T22:43:49.788Z,20.90
2018-06-02T22:46:18.137Z,20.90
2018-06-02T22:48:45.741Z,20.80
2018-06-02T22:51:13.485Z,20.90
2018-06-02T22:53:41.101Z,20.90
2018-06-02T22:56:08.787Z,20.90
2018-06-02T22:58:36.386Z,20.90
2018-06-02T23:01:04.135Z,20.90
2018-06-02T23:03:31.747Z,20.90
2018-06-02T23:05:59.319Z,20.90
2018-06-02T23:08:27.025Z,20.90
2018-06-02T23:10:54.654Z,20.90
2018-06-02T23:13:23.299Z,20.90
2018-06-02T23:15:50.897Z,20.80
2018-06-02T23:18:18.484Z,20.90
2018-06-02T23:20:46.192Z,20.90
2018-06-02T23:23:14.149Z,20.90
2018-06-02T23:25:41.926Z,20.80
2018-06-02T23:28:09.502Z,20.90
2018-06-02T23:30:38.286Z,20.90
2018-06-02T23:33:05.862Z,20.80
2018-06-02T23:35:33.573Z,20.90
2018-06-02T23:38:01.923Z,20.90
2018-06-02T23:40:29.525Z,20.80
2018-06-02T23:42:57.197Z,20.90
2018-06-02T23:45:24.787Z,20.80
2018-06-02T23:47:52.441Z,20.90
2018-06-02T23:50:20.013Z,20.80
2018-06-02T23:52:47.594Z,20.90
2018-06-02T23:55:16.029Z,20.80
2018-06-02T23:57:45.276Z,20.80
